Grande Europa — ICGE — position and weather

sailwx.info

Track history (hours):
 
Tides and Currents Weather Stations Pressure Air Temp Water Temp Dewpoint Dewpoint Depression Visibility Wind Speed Wind Dir Waves Ship Positions

Grande Europa

Last reported at 2015-Jan-28 17:05 UTC. Time now 2015-Jan-30 06:21 UTC.
Position N 34°11' E 032°43'.

Length 183 m; draft 8.3 m.

Type: Cargo ship. MMSI: 247206000.

Date/timePositionNaut miles runAvg speedWind from/ knotsBaromVisibWave heightAir tempDewpointWater temp
2015-Jan-28 17:05N 34°11' E 032°43'1018.3
2015-Jan-28 16:33N 34°18' E 032°50'1818.3
2015-Jan-28 15:33N 34°32' E 033°04'7 7.0
2015-Jan-28 14:30N 34°39' E 033°01'0 0.0
2015-Jan-28 13:33N 34°39' E 033°01'0 0.0
2015-Jan-28 12:33N 34°39' E 033°01'0 0.0
2015-Jan-28 11:33N 34°39' E 033°01'0 0.0
2015-Jan-28 10:30N 34°39' E 033°01'0 0.0
2015-Jan-28 09:33N 34°39' E 033°01'0 0.0
2015-Jan-28 08:30N 34°39' E 033°01'0 0.0
2015-Jan-28 07:33N 34°39' E 033°01'2 1.9
2015-Jan-28 06:33N 34°39' E 033°03'1211.6
2015-Jan-28 05:33N 34°28' E 033°07'1817.8
2015-Jan-28 04:33N 34°11' E 033°11'7417.9
2015-Jan-28 00:25N 32°59' E 033°34'1718.3
2015-Jan-27 23:30N 32°43' E 033°39'4916.5
2015-Jan-27 20:32N 32°01' E 034°09'1818.0
2015-Jan-27 19:32N 31°53' E 034°28'63 2.6
2015-Jan-26 19:22N 32°24' E 033°24'41117.8
2015-Jan-25 20:16N 36°34' E 026°49'113 4.2
2015-Jan-24 17:15N 38°27' E 027°08'16415.4
2015-Jan-24 06:33N 37°38' E 023°49'1716.7
2015-Jan-24 05:33N 37°51' E 023°36'7 6.5
2015-Jan-24 04:32N 37°58' E 023°36'0 0.0
2015-Jan-24 03:32N 37°58' E 023°36'0 0.0
2015-Jan-24 02:32N 37°58' E 023°36'0 0.0
2015-Jan-24 01:32N 37°58' E 023°36'0 0.0
2015-Jan-24 00:32N 37°58' E 023°36'0 0.0
2015-Jan-23 23:32N 37°58' E 023°36'0 0.0
2015-Jan-23 22:32N 37°58' E 023°36'0 0.0
2015-Jan-23 21:32N 37°58' E 023°36'0 0.0
2015-Jan-23 20:32N 37°58' E 023°36'0 0.0
2015-Jan-23 19:32N 37°58' E 023°36'0 0.4
2015-Jan-23 18:33N 37°57' E 023°36'3 2.9
2015-Jan-23 17:33N 37°54' E 023°37'1211.8
2015-Jan-23 16:33N 37°44' E 023°43'2617.8
2015-Jan-23 15:04N 37°17' E 023°41'38815.1
2015-Jan-22 13:25N 38°10' E 015°35'13817.0
2015-Jan-22 05:19N 40°21' E 014°43'1417.4
2015-Jan-22 04:32N 40°35' E 014°43'4 0.4
2015-Jan-21 18:06N 40°35' E 014°38'916.2
2015-Jan-21 17:33N 40°32' E 014°27'1616.4
2015-Jan-21 16:33N 40°26' E 014°07'1616.2
2015-Jan-21 15:33N 40°19' E 013°47'19517.2
2015-Jan-21 04:12N 39°06' E 009°53'1217.6
2015-Jan-21 03:33N 39°01' E 009°39'1717.6
2015-Jan-21 02:33N 38°55' E 009°18'1817.8
2015-Jan-21 01:33N 38°49' E 008°56'1717.5
2015-Jan-21 00:33N 38°47' E 008°34'20818.2
2015-Jan-20 13:11N 38°60' E 004°08'1218.7
2015-Jan-20 12:33N 39°01' E 003°53'1918.6
2015-Jan-20 11:33N 39°02' E 003°29'1818.4
2015-Jan-20 10:33N 39°03' E 003°05'1818.1
2015-Jan-20 09:33N 39°05' E 002°42'1818.0
2015-Jan-20 08:33N 39°08' E 002°20'1817.8
2015-Jan-20 07:33N 39°11' E 001°57'1817.5
2015-Jan-20 06:33N 39°13' E 001°34'1817.7
2015-Jan-20 05:33N 39°15' E 001°11'7017.6
2015-Jan-20 01:33N 39°26' W 000°19'0 0.3
2015-Jan-20 00:33N 39°26' W 000°18'0 0.0
2015-Jan-19 23:33N 39°26' W 000°18'0 0.0
2015-Jan-19 22:33N 39°26' W 000°18'0 0.0
2015-Jan-19 21:33N 39°26' W 000°18'0 0.0
2015-Jan-19 20:33N 39°26' W 000°18'0 0.0
2015-Jan-19 19:33N 39°26' W 000°18'0 0.0
2015-Jan-19 18:33N 39°26' W 000°18'2 1.8
2015-Jan-19 17:34N 39°25' W 000°17'8711.5
2015-Jan-19 10:04N 37°59' W 000°07'1017.0
2015-Jan-19 09:30N 37°51' W 000°14'1717.0
2015-Jan-19 08:31N 37°38' W 000°27'1717.0
2015-Jan-19 07:33N 37°26' W 000°42'1717.5
2015-Jan-19 06:33N 37°15' W 000°59'22117.0
2015-Jan-18 17:33N 35°59' W 005°17'  
Track history (hours):
 
Tides and Currents Weather Stations Pressure Air Temp Water Temp Dewpoint Dewpoint Depression Visibility Wind Speed Wind Dir Waves Ship Positions

Grande Europa

Last reported at 2015-Jan-28 17:05 UTC. Time now 2015-Jan-30 06:21 UTC.
Position N 34°11' E 032°43'.

Length 183 m; draft 8.3 m.

Type: Cargo ship. MMSI: 247206000.

Date/timePositionNaut miles runAvg speedWind from/ knotsBaromVisibWave heightAir tempDewpointWater temp
2015-Jan-28 17:05N 34°11' E 032°43'1018.3
2015-Jan-28 16:33N 34°18' E 032°50'1818.3
2015-Jan-28 15:33N 34°32' E 033°04'7 7.0
2015-Jan-28 14:30N 34°39' E 033°01'0 0.0
2015-Jan-28 13:33N 34°39' E 033°01'0 0.0
2015-Jan-28 12:33N 34°39' E 033°01'0 0.0
2015-Jan-28 11:33N 34°39' E 033°01'0 0.0
2015-Jan-28 10:30N 34°39' E 033°01'0 0.0
2015-Jan-28 09:33N 34°39' E 033°01'0 0.0
2015-Jan-28 08:30N 34°39' E 033°01'0 0.0
2015-Jan-28 07:33N 34°39' E 033°01'2 1.9
2015-Jan-28 06:33N 34°39' E 033°03'1211.6
2015-Jan-28 05:33N 34°28' E 033°07'1817.8
2015-Jan-28 04:33N 34°11' E 033°11'7417.9
2015-Jan-28 00:25N 32°59' E 033°34'1718.3
2015-Jan-27 23:30N 32°43' E 033°39'4916.5
2015-Jan-27 20:32N 32°01' E 034°09'1818.0
2015-Jan-27 19:32N 31°53' E 034°28'63 2.6
2015-Jan-26 19:22N 32°24' E 033°24'41117.8
2015-Jan-25 20:16N 36°34' E 026°49'113 4.2
2015-Jan-24 17:15N 38°27' E 027°08'16415.4
2015-Jan-24 06:33N 37°38' E 023°49'1716.7
2015-Jan-24 05:33N 37°51' E 023°36'7 6.5
2015-Jan-24 04:32N 37°58' E 023°36'0 0.0
2015-Jan-24 03:32N 37°58' E 023°36'0 0.0
2015-Jan-24 02:32N 37°58' E 023°36'0 0.0
2015-Jan-24 01:32N 37°58' E 023°36'0 0.0
2015-Jan-24 00:32N 37°58' E 023°36'0 0.0
2015-Jan-23 23:32N 37°58' E 023°36'0 0.0
2015-Jan-23 22:32N 37°58' E 023°36'0 0.0
2015-Jan-23 21:32N 37°58' E 023°36'0 0.0
2015-Jan-23 20:32N 37°58' E 023°36'0 0.0
2015-Jan-23 19:32N 37°58' E 023°36'0 0.4
2015-Jan-23 18:33N 37°57' E 023°36'3 2.9
2015-Jan-23 17:33N 37°54' E 023°37'1211.8
2015-Jan-23 16:33N 37°44' E 023°43'2617.8
2015-Jan-23 15:04N 37°17' E 023°41'38815.1
2015-Jan-22 13:25N 38°10' E 015°35'13817.0
2015-Jan-22 05:19N 40°21' E 014°43'1417.4
2015-Jan-22 04:32N 40°35' E 014°43'4 0.4
2015-Jan-21 18:06N 40°35' E 014°38'916.2
2015-Jan-21 17:33N 40°32' E 014°27'1616.4
2015-Jan-21 16:33N 40°26' E 014°07'1616.2
2015-Jan-21 15:33N 40°19' E 013°47'19517.2
2015-Jan-21 04:12N 39°06' E 009°53'1217.6
2015-Jan-21 03:33N 39°01' E 009°39'1717.6
2015-Jan-21 02:33N 38°55' E 009°18'1817.8
2015-Jan-21 01:33N 38°49' E 008°56'1717.5
2015-Jan-21 00:33N 38°47' E 008°34'20818.2
2015-Jan-20 13:11N 38°60' E 004°08'1218.7
2015-Jan-20 12:33N 39°01' E 003°53'1918.6
2015-Jan-20 11:33N 39°02' E 003°29'1818.4
2015-Jan-20 10:33N 39°03' E 003°05'1818.1
2015-Jan-20 09:33N 39°05' E 002°42'1818.0
2015-Jan-20 08:33N 39°08' E 002°20'1817.8
2015-Jan-20 07:33N 39°11' E 001°57'1817.5
2015-Jan-20 06:33N 39°13' E 001°34'1817.7
2015-Jan-20 05:33N 39°15' E 001°11'7017.6
2015-Jan-20 01:33N 39°26' W 000°19'0 0.3
2015-Jan-20 00:33N 39°26' W 000°18'0 0.0
2015-Jan-19 23:33N 39°26' W 000°18'0 0.0
2015-Jan-19 22:33N 39°26' W 000°18'0 0.0
2015-Jan-19 21:33N 39°26' W 000°18'0 0.0
2015-Jan-19 20:33N 39°26' W 000°18'0 0.0
2015-Jan-19 19:33N 39°26' W 000°18'0 0.0
2015-Jan-19 18:33N 39°26' W 000°18'2 1.8
2015-Jan-19 17:34N 39°25' W 000°17'8711.5
2015-Jan-19 10:04N 37°59' W 000°07'1017.0
2015-Jan-19 09:30N 37°51' W 000°14'1717.0
2015-Jan-19 08:31N 37°38' W 000°27'1717.0
2015-Jan-19 07:33N 37°26' W 000°42'1717.5
2015-Jan-19 06:33N 37°15' W 000°59'22117.0
2015-Jan-18 17:33N 35°59' W 005°17'  

Dump ship's entire track history